Allisona, Tennessee
Current Conditions -  °F | °C
As of 6:53 PM on Sunday 21 Dec 2014 (Local Time) from KBNA Reporting Station
Broken Clouds Broken Clouds  
Wind Chill: 49°   Ceiling: 4800
Heat Index: 49°   Visibility: 10mi
Dew Point: 38°   Wind: 0mph
Humidity: 66%   Direction: NA
Pressure: 30.07"   Gusts: NA
Location:  35.7808°N, 86.7221°W
Report Text: KBNA 220053Z 00000KT 10SM BKN048 09/03 A3007 RMK AO2 SLP186 T00940033
Loading
Personal Weather Stations






























Interactive Weather Map New forecast layout! Learn more

10-Day Weather Forecast

Advertisements
Track Severe Weather on mobile